sensor_id;sensor_type;location;lat;lon;timestamp;P1;durP1;ratioP1;P2;durP2;ratioP2
7985;SDS011;4038;42.612;23.066;2023-03-12T00:01:40;23.30;;;21.70;;
7985;SDS011;4038;42.612;23.066;2023-03-12T00:04:05;23.00;;;21.10;;
7985;SDS011;4038;42.612;23.066;2023-03-12T00:06:31;23.20;;;21.70;;
7985;SDS011;4038;42.612;23.066;2023-03-12T00:08:57;23.77;;;22.10;;
7985;SDS011;4038;42.612;23.066;2023-03-12T00:11:22;23.30;;;21.50;;
7985;SDS011;4038;42.612;23.066;2023-03-12T00:13:51;24.00;;;21.93;;
7985;SDS011;4038;42.612;23.066;2023-03-12T00:16:17;23.93;;;22.10;;
7985;SDS011;4038;42.612;23.066;2023-03-12T00:18:42;23.60;;;21.67;;
7985;SDS011;4038;42.612;23.066;2023-03-12T00:21:08;23.23;;;21.73;;
7985;SDS011;4038;42.612;23.066;2023-03-12T00:23:34;22.60;;;21.00;;
7985;SDS011;4038;42.612;23.066;2023-03-12T00:26:00;21.90;;;20.40;;
7985;SDS011;4038;42.612;23.066;2023-03-12T00:28:25;22.87;;;21.37;;
7985;SDS011;4038;42.612;23.066;2023-03-12T00:30:50;22.90;;;21.30;;
7985;SDS011;4038;42.612;23.066;2023-03-12T00:33:17;23.90;;;22.30;;
7985;SDS011;4038;42.612;23.066;2023-03-12T00:35:42;22.77;;;20.87;;
7985;SDS011;4038;42.612;23.066;2023-03-12T00:38:07;24.07;;;22.47;;
7985;SDS011;4038;42.612;23.066;2023-03-12T00:40:33;23.33;;;21.83;;
7985;SDS011;4038;42.612;23.066;2023-03-12T00:42:58;24.40;;;22.60;;
7985;SDS011;4038;42.612;23.066;2023-03-12T00:45:23;23.03;;;21.17;;
7985;SDS011;4038;42.612;23.066;2023-03-12T00:47:48;22.70;;;21.20;;
7985;SDS011;4038;42.612;23.066;2023-03-12T00:50:14;23.63;;;22.03;;
7985;SDS011;4038;42.612;23.066;2023-03-12T00:52:39;24.20;;;22.50;;
7985;SDS011;4038;42.612;23.066;2023-03-12T00:55:04;23.50;;;21.90;;
7985;SDS011;4038;42.612;23.066;2023-03-12T00:57:30;23.83;;;21.90;;
7985;SDS011;4038;42.612;23.066;2023-03-12T00:59:55;23.83;;;21.93;;
7985;SDS011;4038;42.612;23.066;2023-03-12T01:02:20;23.40;;;21.70;;
7985;SDS011;4038;42.612;23.066;2023-03-12T01:04:45;23.97;;;22.27;;
7985;SDS011;4038;42.612;23.066;2023-03-12T01:07:11;24.27;;;22.47;;
7985;SDS011;4038;42.612;23.066;2023-03-12T01:09:36;24.03;;;22.40;;
7985;SDS011;4038;42.612;23.066;2023-03-12T01:12:01;24.00;;;22.23;;
7985;SDS011;4038;42.612;23.066;2023-03-12T01:14:26;24.40;;;22.70;;
7985;SDS011;4038;42.612;23.066;2023-03-12T01:16:52;24.43;;;22.83;;
7985;SDS011;4038;42.612;23.066;2023-03-12T01:19:17;23.50;;;22.00;;
7985;SDS011;4038;42.612;23.066;2023-03-12T01:21:42;23.23;;;21.53;;
7985;SDS011;4038;42.612;23.066;2023-03-12T01:24:07;22.83;;;21.43;;
7985;SDS011;4038;42.612;23.066;2023-03-12T01:26:33;22.83;;;21.43;;
7985;SDS011;4038;42.612;23.066;2023-03-12T01:28:58;23.40;;;21.73;;
7985;SDS011;4038;42.612;23.066;2023-03-12T01:31:23;23.60;;;21.80;;
7985;SDS011;4038;42.612;23.066;2023-03-12T01:33:52;22.77;;;21.07;;
7985;SDS011;4038;42.612;23.066;2023-03-12T01:36:18;24.03;;;22.13;;
7985;SDS011;4038;42.612;23.066;2023-03-12T01:38:44;23.07;;;21.57;;
7985;SDS011;4038;42.612;23.066;2023-03-12T01:41:09;23.47;;;21.80;;
7985;SDS011;4038;42.612;23.066;2023-03-12T01:43:36;22.53;;;21.03;;
7985;SDS011;4038;42.612;23.066;2023-03-12T01:46:08;22.30;;;20.80;;
7985;SDS011;4038;42.612;23.066;2023-03-12T01:48:41;23.40;;;21.73;;
7985;SDS011;4038;42.612;23.066;2023-03-12T01:51:09;23.40;;;21.80;;
7985;SDS011;4038;42.612;23.066;2023-03-12T01:53:36;23.80;;;22.20;;
7985;SDS011;4038;42.612;23.066;2023-03-12T01:56:02;22.63;;;21.13;;
7985;SDS011;4038;42.612;23.066;2023-03-12T01:58:27;23.80;;;22.00;;
7985;SDS011;4038;42.612;23.066;2023-03-12T02:00:54;24.00;;;22.40;;
7985;SDS011;4038;42.612;23.066;2023-03-12T02:03:20;24.03;;;22.53;;
7985;SDS011;4038;42.612;23.066;2023-03-12T02:05:47;23.40;;;21.90;;
7985;SDS011;4038;42.612;23.066;2023-03-12T02:08:15;23.10;;;21.50;;
7985;SDS011;4038;42.612;23.066;2023-03-12T02:10:41;24.10;;;22.40;;
7985;SDS011;4038;42.612;23.066;2023-03-12T02:13:07;24.80;;;23.20;;
7985;SDS011;4038;42.612;23.066;2023-03-12T02:15:35;26.03;;;23.83;;
7985;SDS011;4038;42.612;23.066;2023-03-12T02:18:02;22.80;;;21.20;;
7985;SDS011;4038;42.612;23.066;2023-03-12T02:20:34;24.03;;;22.47;;
7985;SDS011;4038;42.612;23.066;2023-03-12T02:25:45;23.23;;;21.73;;
7985;SDS011;4038;42.612;23.066;2023-03-12T02:28:12;23.00;;;21.50;;
7985;SDS011;4038;42.612;23.066;2023-03-12T02:30:38;22.50;;;20.90;;
7985;SDS011;4038;42.612;23.066;2023-03-12T02:33:06;22.30;;;20.70;;
7985;SDS011;4038;42.612;23.066;2023-03-12T02:35:31;23.00;;;21.43;;
7985;SDS011;4038;42.612;23.066;2023-03-12T02:37:57;23.70;;;22.20;;
7985;SDS011;4038;42.612;23.066;2023-03-12T02:40:26;23.23;;;21.63;;
7985;SDS011;4038;42.612;23.066;2023-03-12T02:42:53;22.57;;;20.97;;
7985;SDS011;4038;42.612;23.066;2023-03-12T02:45:19;22.47;;;21.07;;
7985;SDS011;4038;42.612;23.066;2023-03-12T02:47:44;23.03;;;21.43;;
7985;SDS011;4038;42.612;23.066;2023-03-12T02:50:09;23.17;;;21.60;;
7985;SDS011;4038;42.612;23.066;2023-03-12T02:52:35;22.70;;;21.07;;
7985;SDS011;4038;42.612;23.066;2023-03-12T02:55:02;23.73;;;22.10;;
7985;SDS011;4038;42.612;23.066;2023-03-12T02:57:27;24.90;;;23.00;;
7985;SDS011;4038;42.612;23.066;2023-03-12T02:59:52;23.07;;;21.47;;
7985;SDS011;4038;42.612;23.066;2023-03-12T03:02:17;22.10;;;20.60;;
7985;SDS011;4038;42.612;23.066;2023-03-12T03:04:43;22.17;;;20.57;;
7985;SDS011;4038;42.612;23.066;2023-03-12T03:07:08;22.77;;;21.27;;
7985;SDS011;4038;42.612;23.066;2023-03-12T03:09:33;22.73;;;21.23;;
7985;SDS011;4038;42.612;23.066;2023-03-12T03:11:58;23.30;;;21.70;;
7985;SDS011;4038;42.612;23.066;2023-03-12T03:14:24;22.83;;;21.43;;
7985;SDS011;4038;42.612;23.066;2023-03-12T03:16:49;22.60;;;21.03;;
7985;SDS011;4038;42.612;23.066;2023-03-12T03:19:14;23.50;;;21.60;;
7985;SDS011;4038;42.612;23.066;2023-03-12T03:21:40;22.90;;;21.40;;
7985;SDS011;4038;42.612;23.066;2023-03-12T03:24:05;22.90;;;21.30;;
7985;SDS011;4038;42.612;23.066;2023-03-12T03:26:31;22.60;;;21.10;;
7985;SDS011;4038;42.612;23.066;2023-03-12T03:28:56;22.60;;;21.20;;
7985;SDS011;4038;42.612;23.066;2023-03-12T03:31:21;21.87;;;20.47;;
7985;SDS011;4038;42.612;23.066;2023-03-12T03:33:46;22.20;;;20.40;;
7985;SDS011;4038;42.612;23.066;2023-03-12T03:36:12;22.40;;;20.90;;
7985;SDS011;4038;42.612;23.066;2023-03-12T03:38:40;21.73;;;20.33;;
7985;SDS011;4038;42.612;23.066;2023-03-12T03:41:06;22.57;;;21.00;;
7985;SDS011;4038;42.612;23.066;2023-03-12T03:43:31;22.87;;;21.43;;
7985;SDS011;4038;42.612;23.066;2023-03-12T03:45:57;22.40;;;21.00;;
7985;SDS011;4038;42.612;23.066;2023-03-12T03:48:22;22.70;;;21.07;;
7985;SDS011;4038;42.612;23.066;2023-03-12T03:50:48;22.23;;;20.83;;
7985;SDS011;4038;42.612;23.066;2023-03-12T03:53:13;23.30;;;21.70;;
7985;SDS011;4038;42.612;23.066;2023-03-12T03:55:38;22.70;;;21.30;;
7985;SDS011;4038;42.612;23.066;2023-03-12T03:58:04;22.60;;;20.97;;
7985;SDS011;4038;42.612;23.066;2023-03-12T04:00:29;22.00;;;20.50;;
7985;SDS011;4038;42.612;23.066;2023-03-12T04:02:55;22.17;;;20.67;;
7985;SDS011;4038;42.612;23.066;2023-03-12T04:05:20;22.10;;;20.67;;
7985;SDS011;4038;42.612;23.066;2023-03-12T04:07:45;22.97;;;21.33;;
7985;SDS011;4038;42.612;23.066;2023-03-12T04:10:11;21.90;;;20.27;;
7985;SDS011;4038;42.612;23.066;2023-03-12T04:12:36;21.07;;;19.77;;
7985;SDS011;4038;42.612;23.066;2023-03-12T04:15:01;22.20;;;20.80;;
7985;SDS011;4038;42.612;23.066;2023-03-12T04:17:27;21.87;;;20.30;;
7985;SDS011;4038;42.612;23.066;2023-03-12T04:19:52;21.73;;;20.40;;
7985;SDS011;4038;42.612;23.066;2023-03-12T04:22:17;21.67;;;20.20;;
7985;SDS011;4038;42.612;23.066;2023-03-12T04:24:42;20.97;;;19.53;;
7985;SDS011;4038;42.612;23.066;2023-03-12T04:27:08;21.87;;;20.27;;
7985;SDS011;4038;42.612;23.066;2023-03-12T04:29:33;22.10;;;20.70;;
7985;SDS011;4038;42.612;23.066;2023-03-12T04:31:58;22.27;;;20.77;;
7985;SDS011;4038;42.612;23.066;2023-03-12T04:34:23;22.77;;;21.27;;
7985;SDS011;4038;42.612;23.066;2023-03-12T04:36:49;21.60;;;20.20;;
7985;SDS011;4038;42.612;23.066;2023-03-12T04:39:17;22.57;;;20.93;;
7985;SDS011;4038;42.612;23.066;2023-03-12T04:41:43;22.00;;;20.60;;
7985;SDS011;4038;42.612;23.066;2023-03-12T04:44:08;21.00;;;19.60;;
7985;SDS011;4038;42.612;23.066;2023-03-12T04:46:34;21.97;;;20.20;;
7985;SDS011;4038;42.612;23.066;2023-03-12T04:48:59;21.47;;;19.97;;
7985;SDS011;4038;42.612;23.066;2023-03-12T04:51:26;21.80;;;20.20;;
7985;SDS011;4038;42.612;23.066;2023-03-12T04:53:52;20.63;;;19.20;;
7985;SDS011;4038;42.612;23.066;2023-03-12T04:56:17;22.43;;;20.97;;
7985;SDS011;4038;42.612;23.066;2023-03-12T04:58:42;20.97;;;19.67;;
7985;SDS011;4038;42.612;23.066;2023-03-12T05:01:11;21.80;;;20.10;;
7985;SDS011;4038;42.612;23.066;2023-03-12T05:03:43;21.23;;;19.63;;
7985;SDS011;4038;42.612;23.066;2023-03-12T05:06:08;22.03;;;20.53;;
7985;SDS011;4038;42.612;23.066;2023-03-12T05:08:33;21.70;;;20.30;;
7985;SDS011;4038;42.612;23.066;2023-03-12T05:10:59;21.30;;;19.90;;
7985;SDS011;4038;42.612;23.066;2023-03-12T05:13:24;21.90;;;20.50;;
7985;SDS011;4038;42.612;23.066;2023-03-12T05:15:50;21.70;;;20.30;;
7985;SDS011;4038;42.612;23.066;2023-03-12T05:18:15;22.23;;;20.73;;
7985;SDS011;4038;42.612;23.066;2023-03-12T05:20:41;21.27;;;19.87;;
7985;SDS011;4038;42.612;23.066;2023-03-12T05:23:06;24.97;;;22.97;;
7985;SDS011;4038;42.612;23.066;2023-03-12T05:25:31;24.57;;;22.77;;
7985;SDS011;4038;42.612;23.066;2023-03-12T05:27:57;24.70;;;22.77;;
7985;SDS011;4038;42.612;23.066;2023-03-12T05:30:22;23.90;;;22.20;;
7985;SDS011;4038;42.612;23.066;2023-03-12T05:32:47;23.97;;;22.20;;
7985;SDS011;4038;42.612;23.066;2023-03-12T05:35:12;25.00;;;23.03;;
7985;SDS011;4038;42.612;23.066;2023-03-12T05:37:38;25.40;;;23.47;;
7985;SDS011;4038;42.612;23.066;2023-03-12T05:40:06;24.87;;;23.03;;
7985;SDS011;4038;42.612;23.066;2023-03-12T05:42:32;23.50;;;21.80;;
7985;SDS011;4038;42.612;23.066;2023-03-12T05:44:57;25.00;;;23.00;;
7985;SDS011;4038;42.612;23.066;2023-03-12T05:47:23;24.40;;;22.53;;
7985;SDS011;4038;42.612;23.066;2023-03-12T05:49:48;23.87;;;22.23;;
7985;SDS011;4038;42.612;23.066;2023-03-12T05:52:13;25.37;;;23.47;;
7985;SDS011;4038;42.612;23.066;2023-03-12T05:54:39;23.70;;;21.90;;
7985;SDS011;4038;42.612;23.066;2023-03-12T05:57:05;22.13;;;20.63;;
7985;SDS011;4038;42.612;23.066;2023-03-12T05:59:30;22.10;;;20.60;;
7985;SDS011;4038;42.612;23.066;2023-03-12T06:01:56;22.83;;;21.03;;
7985;SDS011;4038;42.612;23.066;2023-03-12T06:04:21;22.77;;;21.17;;
7985;SDS011;4038;42.612;23.066;2023-03-12T06:06:46;22.90;;;21.30;;
7985;SDS011;4038;42.612;23.066;2023-03-12T06:09:11;23.65;;;21.70;;
7985;SDS011;4038;42.612;23.066;2023-03-12T06:11:37;22.40;;;20.80;;
7985;SDS011;4038;42.612;23.066;2023-03-12T06:14:02;22.17;;;20.67;;
7985;SDS011;4038;42.612;23.066;2023-03-12T06:16:27;22.73;;;21.03;;
7985;SDS011;4038;42.612;23.066;2023-03-12T06:18:57;23.30;;;21.70;;
7985;SDS011;4038;42.612;23.066;2023-03-12T06:21:24;23.00;;;21.30;;
7985;SDS011;4038;42.612;23.066;2023-03-12T06:23:50;23.65;;;22.05;;
7985;SDS011;4038;42.612;23.066;2023-03-12T06:26:16;24.45;;;22.38;;
7985;SDS011;4038;42.612;23.066;2023-03-12T06:28:42;23.50;;;21.80;;
7985;SDS011;4038;42.612;23.066;2023-03-12T06:31:08;23.38;;;21.70;;
7985;SDS011;4038;42.612;23.066;2023-03-12T06:33:34;21.92;;;20.52;;
7985;SDS011;4038;42.612;23.066;2023-03-12T06:36:00;21.42;;;20.02;;
7985;SDS011;4038;42.612;23.066;2023-03-12T06:38:25;20.77;;;19.48;;
7985;SDS011;4038;42.612;23.066;2023-03-12T06:40:58;21.08;;;19.67;;
7985;SDS011;4038;42.612;23.066;2023-03-12T06:43:25;21.20;;;19.80;;
7985;SDS011;4038;42.612;23.066;2023-03-12T06:45:50;21.77;;;20.27;;
7985;SDS011;4038;42.612;23.066;2023-03-12T06:48:15;22.35;;;20.95;;
7985;SDS011;4038;42.612;23.066;2023-03-12T06:50:41;21.55;;;20.02;;
7985;SDS011;4038;42.612;23.066;2023-03-12T06:53:06;21.05;;;19.75;;
7985;SDS011;4038;42.612;23.066;2023-03-12T06:55:32;21.48;;;19.52;;
7985;SDS011;4038;42.612;23.066;2023-03-12T06:57:57;21.00;;;19.60;;
7985;SDS011;4038;42.612;23.066;2023-03-12T07:00:22;19.83;;;18.63;;
7985;SDS011;4038;42.612;23.066;2023-03-12T07:02:47;20.85;;;19.45;;
7985;SDS011;4038;42.612;23.066;2023-03-12T07:05:13;20.83;;;19.50;;
7985;SDS011;4038;42.612;23.066;2023-03-12T07:07:38;21.33;;;19.93;;
7985;SDS011;4038;42.612;23.066;2023-03-12T07:10:03;21.13;;;19.57;;
7985;SDS011;4038;42.612;23.066;2023-03-12T07:12:30;20.93;;;19.60;;
7985;SDS011;4038;42.612;23.066;2023-03-12T07:14:55;19.80;;;18.60;;
7985;SDS011;4038;42.612;23.066;2023-03-12T07:17:21;21.17;;;19.77;;
7985;SDS011;4038;42.612;23.066;2023-03-12T07:19:47;20.93;;;19.63;;
7985;SDS011;4038;42.612;23.066;2023-03-12T07:22:12;20.90;;;19.60;;
7985;SDS011;4038;42.612;23.066;2023-03-12T07:24:37;21.30;;;19.90;;
7985;SDS011;4038;42.612;23.066;2023-03-12T07:27:02;21.30;;;19.52;;
7985;SDS011;4038;42.612;23.066;2023-03-12T07:29:28;20.90;;;19.40;;
7985;SDS011;4038;42.612;23.066;2023-03-12T07:31:53;21.50;;;20.13;;
7985;SDS011;4038;42.612;23.066;2023-03-12T07:34:18;21.40;;;20.00;;
7985;SDS011;4038;42.612;23.066;2023-03-12T07:36:43;21.73;;;20.33;;
7985;SDS011;4038;42.612;23.066;2023-03-12T07:39:09;21.48;;;19.90;;
7985;SDS011;4038;42.612;23.066;2023-03-12T07:41:34;22.13;;;20.73;;
7985;SDS011;4038;42.612;23.066;2023-03-12T07:44:01;21.92;;;20.52;;
7985;SDS011;4038;42.612;23.066;2023-03-12T07:46:26;21.10;;;19.70;;
7985;SDS011;4038;42.612;23.066;2023-03-12T07:48:51;21.27;;;19.98;;
7985;SDS011;4038;42.612;23.066;2023-03-12T07:51:17;20.93;;;19.53;;
7985;SDS011;4038;42.612;23.066;2023-03-12T07:53:42;21.35;;;19.85;;
7985;SDS011;4038;42.612;23.066;2023-03-12T07:56:07;21.20;;;19.80;;
7985;SDS011;4038;42.612;23.066;2023-03-12T07:58:32;20.63;;;19.13;;
7985;SDS011;4038;42.612;23.066;2023-03-12T08:01:00;20.67;;;19.37;;
7985;SDS011;4038;42.612;23.066;2023-03-12T08:03:28;21.60;;;20.20;;
7985;SDS011;4038;42.612;23.066;2023-03-12T08:05:58;21.63;;;20.23;;
7985;SDS011;4038;42.612;23.066;2023-03-12T08:08:24;22.00;;;20.53;;
7985;SDS011;4038;42.612;23.066;2023-03-12T08:10:49;24.10;;;22.40;;
7985;SDS011;4038;42.612;23.066;2023-03-12T08:13:14;21.47;;;20.07;;
7985;SDS011;4038;42.612;23.066;2023-03-12T08:15:39;21.97;;;20.57;;
7985;SDS011;4038;42.612;23.066;2023-03-12T08:18:05;22.87;;;21.27;;
7985;SDS011;4038;42.612;23.066;2023-03-12T08:20:30;21.47;;;19.87;;
7985;SDS011;4038;42.612;23.066;2023-03-12T08:22:55;22.70;;;21.10;;
7985;SDS011;4038;42.612;23.066;2023-03-12T08:25:21;21.07;;;19.67;;
7985;SDS011;4038;42.612;23.066;2023-03-12T08:27:48;23.83;;;21.97;;
7985;SDS011;4038;42.612;23.066;2023-03-12T08:30:14;22.10;;;20.60;;
7985;SDS011;4038;42.612;23.066;2023-03-12T08:32:39;20.97;;;19.57;;
7985;SDS011;4038;42.612;23.066;2023-03-12T08:35:04;22.53;;;21.13;;
7985;SDS011;4038;42.612;23.066;2023-03-12T08:37:30;22.37;;;20.87;;
7985;SDS011;4038;42.612;23.066;2023-03-12T08:39:55;21.20;;;19.70;;
7985;SDS011;4038;42.612;23.066;2023-03-12T08:42:21;21.33;;;19.90;;
7985;SDS011;4038;42.612;23.066;2023-03-12T08:44:46;21.10;;;19.60;;
7985;SDS011;4038;42.612;23.066;2023-03-12T08:47:12;20.92;;;19.52;;
7985;SDS011;4038;42.612;23.066;2023-03-12T08:49:37;21.13;;;19.73;;
7985;SDS011;4038;42.612;23.066;2023-03-12T08:52:02;22.07;;;20.53;;
7985;SDS011;4038;42.612;23.066;2023-03-12T08:54:30;22.63;;;21.23;;
7985;SDS011;4038;42.612;23.066;2023-03-12T08:56:56;22.37;;;20.93;;
7985;SDS011;4038;42.612;23.066;2023-03-12T08:59:21;21.77;;;20.27;;
7985;SDS011;4038;42.612;23.066;2023-03-12T09:01:47;23.00;;;21.40;;
7985;SDS011;4038;42.612;23.066;2023-03-12T09:04:13;23.00;;;21.37;;
7985;SDS011;4038;42.612;23.066;2023-03-12T09:06:38;23.43;;;21.93;;
7985;SDS011;4038;42.612;23.066;2023-03-12T09:09:03;23.27;;;21.67;;
7985;SDS011;4038;42.612;23.066;2023-03-12T09:11:32;22.80;;;21.40;;
7985;SDS011;4038;42.612;23.066;2023-03-12T09:13:58;23.27;;;21.77;;
7985;SDS011;4038;42.612;23.066;2023-03-12T09:16:23;23.33;;;21.83;;
7985;SDS011;4038;42.612;23.066;2023-03-12T09:18:48;22.37;;;20.97;;
7985;SDS011;4038;42.612;23.066;2023-03-12T09:21:14;24.50;;;22.90;;
7985;SDS011;4038;42.612;23.066;2023-03-12T09:23:42;22.83;;;21.43;;
7985;SDS011;4038;42.612;23.066;2023-03-12T09:26:08;23.20;;;21.80;;
7985;SDS011;4038;42.612;23.066;2023-03-12T09:28:34;22.10;;;20.70;;
7985;SDS011;4038;42.612;23.066;2023-03-12T09:31:00;23.23;;;21.43;;
7985;SDS011;4038;42.612;23.066;2023-03-12T09:33:25;22.30;;;20.83;;
7985;SDS011;4038;42.612;23.066;2023-03-12T09:35:55;21.33;;;19.93;;
7985;SDS011;4038;42.612;23.066;2023-03-12T09:38:20;21.40;;;20.10;;
7985;SDS011;4038;42.612;23.066;2023-03-12T09:40:45;21.67;;;20.27;;
7985;SDS011;4038;42.612;23.066;2023-03-12T09:43:22;22.20;;;20.80;;
7985;SDS011;4038;42.612;23.066;2023-03-12T09:45:50;21.73;;;20.43;;
7985;SDS011;4038;42.612;23.066;2023-03-12T09:48:17;21.90;;;20.60;;
7985;SDS011;4038;42.612;23.066;2023-03-12T09:50:48;21.83;;;20.43;;
7985;SDS011;4038;42.612;23.066;2023-03-12T09:53:25;22.73;;;21.23;;
7985;SDS011;4038;42.612;23.066;2023-03-12T09:55:52;22.00;;;20.70;;
7985;SDS011;4038;42.612;23.066;2023-03-12T10:00:57;22.57;;;21.17;;
7985;SDS011;4038;42.612;23.066;2023-03-12T10:06:15;21.27;;;19.87;;
7985;SDS011;4038;42.612;23.066;2023-03-12T10:08:48;21.23;;;19.93;;
7985;SDS011;4038;42.612;23.066;2023-03-12T10:14:13;21.52;;;20.20;;
7985;SDS011;4038;42.612;23.066;2023-03-12T10:27:08;23.60;;;22.00;;
7985;SDS011;4038;42.612;23.066;2023-03-12T10:29:35;22.83;;;21.43;;
7985;SDS011;4038;42.612;23.066;2023-03-12T10:34:47;21.25;;;19.95;;
7985;SDS011;4038;42.612;23.066;2023-03-12T10:39:48;23.40;;;21.70;;
7985;SDS011;4038;42.612;23.066;2023-03-12T10:42:17;21.40;;;20.10;;
7985;SDS011;4038;42.612;23.066;2023-03-12T10:44:42;21.80;;;20.40;;
7985;SDS011;4038;42.612;23.066;2023-03-12T10:49:52;21.83;;;20.42;;
7985;SDS011;4038;42.612;23.066;2023-03-12T10:52:19;22.65;;;21.15;;
7985;SDS011;4038;42.612;23.066;2023-03-12T10:54:45;21.85;;;20.45;;
7985;SDS011;4038;42.612;23.066;2023-03-12T10:57:14;22.27;;;20.87;;
7985;SDS011;4038;42.612;23.066;2023-03-12T10:59:40;21.70;;;20.08;;
7985;SDS011;4038;42.612;23.066;2023-03-12T11:04:52;21.65;;;20.33;;
7985;SDS011;4038;42.612;23.066;2023-03-12T11:09:43;20.37;;;19.07;;
7985;SDS011;4038;42.612;23.066;2023-03-12T11:12:25;20.93;;;19.30;;
7985;SDS011;4038;42.612;23.066;2023-03-12T11:14:51;20.98;;;19.40;;
7985;SDS011;4038;42.612;23.066;2023-03-12T11:17:21;20.40;;;19.10;;
7985;SDS011;4038;42.612;23.066;2023-03-12T11:19:46;22.27;;;20.77;;
7985;SDS011;4038;42.612;23.066;2023-03-12T11:22:11;22.17;;;20.67;;
7985;SDS011;4038;42.612;23.066;2023-03-12T11:24:59;22.42;;;20.92;;
7985;SDS011;4038;42.612;23.066;2023-03-12T11:29:56;21.77;;;20.48;;
7985;SDS011;4038;42.612;23.066;2023-03-12T11:32:32;21.45;;;20.05;;
7985;SDS011;4038;42.612;23.066;2023-03-12T11:34:58;20.55;;;19.25;;
7985;SDS011;4038;42.612;23.066;2023-03-12T11:37:35;21.08;;;19.77;;
7985;SDS011;4038;42.612;23.066;2023-03-12T11:48:02;21.63;;;20.23;;
7985;SDS011;4038;42.612;23.066;2023-03-12T11:50:40;20.25;;;18.95;;
7985;SDS011;4038;42.612;23.066;2023-03-12T11:53:16;20.38;;;18.98;;
7985;SDS011;4038;42.612;23.066;2023-03-12T12:06:07;20.73;;;19.33;;
7985;SDS011;4038;42.612;23.066;2023-03-12T12:13:40;21.38;;;20.05;;
7985;SDS011;4038;42.612;23.066;2023-03-12T12:26:22;20.48;;;19.17;;
7985;SDS011;4038;42.612;23.066;2023-03-12T12:36:34;21.27;;;19.80;;
7985;SDS011;4038;42.612;23.066;2023-03-12T12:41:31;21.33;;;19.93;;
7985;SDS011;4038;42.612;23.066;2023-03-12T12:44:00;21.35;;;19.98;;
7985;SDS011;4038;42.612;23.066;2023-03-12T12:46:33;20.92;;;19.58;;
7985;SDS011;4038;42.612;23.066;2023-03-12T12:49:04;20.23;;;18.90;;
7985;SDS011;4038;42.612;23.066;2023-03-12T12:51:34;20.95;;;19.63;;
7985;SDS011;4038;42.612;23.066;2023-03-12T12:54:04;20.80;;;19.50;;
7985;SDS011;4038;42.612;23.066;2023-03-12T12:57:13;21.43;;;20.10;;
7985;SDS011;4038;42.612;23.066;2023-03-12T13:02:20;21.53;;;20.20;;
7985;SDS011;4038;42.612;23.066;2023-03-12T13:04:46;21.65;;;20.25;;
7985;SDS011;4038;42.612;23.066;2023-03-12T13:14:52;22.48;;;21.08;;
7985;SDS011;4038;42.612;23.066;2023-03-12T13:17:26;22.27;;;20.77;;
7985;SDS011;4038;42.612;23.066;2023-03-12T13:19:52;22.45;;;20.88;;
7985;SDS011;4038;42.612;23.066;2023-03-12T13:24:56;22.35;;;20.88;;
7985;SDS011;4038;42.612;23.066;2023-03-12T13:27:23;22.05;;;20.65;;
7985;SDS011;4038;42.612;23.066;2023-03-12T13:29:49;20.55;;;19.20;;
7985;SDS011;4038;42.612;23.066;2023-03-12T13:35:43;21.55;;;20.25;;
7985;SDS011;4038;42.612;23.066;2023-03-12T13:45:27;20.50;;;19.10;;
7985;SDS011;4038;42.612;23.066;2023-03-12T13:47:56;20.25;;;18.88;;
7985;SDS011;4038;42.612;23.066;2023-03-12T13:50:23;21.63;;;19.92;;
7985;SDS011;4038;42.612;23.066;2023-03-12T13:52:49;20.20;;;18.80;;
7985;SDS011;4038;42.612;23.066;2023-03-12T13:55:21;21.67;;;20.17;;
7985;SDS011;4038;42.612;23.066;2023-03-12T13:57:49;22.38;;;20.88;;
7985;SDS011;4038;42.612;23.066;2023-03-12T14:00:23;23.23;;;21.63;;
7985;SDS011;4038;42.612;23.066;2023-03-12T14:02:51;22.40;;;20.83;;
7985;SDS011;4038;42.612;23.066;2023-03-12T14:05:17;22.05;;;20.55;;
7985;SDS011;4038;42.612;23.066;2023-03-12T14:15:45;22.17;;;20.58;;
7985;SDS011;4038;42.612;23.066;2023-03-12T14:18:17;21.65;;;20.15;;
7985;SDS011;4038;42.612;23.066;2023-03-12T14:20:49;21.92;;;20.10;;
7985;SDS011;4038;42.612;23.066;2023-03-12T14:23:16;21.38;;;19.98;;
7985;SDS011;4038;42.612;23.066;2023-03-12T14:25:42;21.08;;;19.67;;
7985;SDS011;4038;42.612;23.066;2023-03-12T14:28:18;21.20;;;19.80;;
7985;SDS011;4038;42.612;23.066;2023-03-12T14:33:44;22.45;;;20.85;;
7985;SDS011;4038;42.612;23.066;2023-03-12T14:36:13;22.08;;;20.67;;
7985;SDS011;4038;42.612;23.066;2023-03-12T14:38:43;21.92;;;20.52;;
7985;SDS011;4038;42.612;23.066;2023-03-12T14:41:24;21.95;;;20.50;;
7985;SDS011;4038;42.612;23.066;2023-03-12T14:43:53;21.23;;;19.83;;
7985;SDS011;4038;42.612;23.066;2023-03-12T14:46:22;20.98;;;19.58;;
7985;SDS011;4038;42.612;23.066;2023-03-12T14:48:48;20.67;;;19.38;;
7985;SDS011;4038;42.612;23.066;2023-03-12T14:51:21;21.25;;;19.85;;
7985;SDS011;4038;42.612;23.066;2023-03-12T14:53:47;20.83;;;19.42;;
7985;SDS011;4038;42.612;23.066;2023-03-12T14:56:13;21.52;;;20.02;;
7985;SDS011;4038;42.612;23.066;2023-03-12T14:58:46;21.58;;;20.05;;
7985;SDS011;4038;42.612;23.066;2023-03-12T15:01:21;20.83;;;19.42;;
7985;SDS011;4038;42.612;23.066;2023-03-12T15:04:00;20.63;;;19.08;;
7985;SDS011;4038;42.612;23.066;2023-03-12T15:06:31;21.42;;;20.02;;
7985;SDS011;4038;42.612;23.066;2023-03-12T15:08:57;20.83;;;19.42;;
7985;SDS011;4038;42.612;23.066;2023-03-12T15:11:24;21.75;;;20.35;;
7985;SDS011;4038;42.612;23.066;2023-03-12T15:13:51;21.20;;;19.85;;
7985;SDS011;4038;42.612;23.066;2023-03-12T15:16:17;21.55;;;20.25;;
7985;SDS011;4038;42.612;23.066;2023-03-12T15:18:43;21.80;;;20.40;;
7985;SDS011;4038;42.612;23.066;2023-03-12T15:21:08;21.73;;;20.33;;
7985;SDS011;4038;42.612;23.066;2023-03-12T15:23:35;20.90;;;19.50;;
7985;SDS011;4038;42.612;23.066;2023-03-12T15:31:19;22.33;;;20.92;;
7985;SDS011;4038;42.612;23.066;2023-03-12T15:33:57;22.33;;;20.92;;
7985;SDS011;4038;42.612;23.066;2023-03-12T15:36:24;21.67;;;20.27;;
7985;SDS011;4038;42.612;23.066;2023-03-12T15:39:01;21.27;;;19.97;;
7985;SDS011;4038;42.612;23.066;2023-03-12T15:41:27;21.93;;;20.63;;
7985;SDS011;4038;42.612;23.066;2023-03-12T15:43:55;23.47;;;22.07;;
7985;SDS011;4038;42.612;23.066;2023-03-12T15:46:24;23.97;;;22.47;;
7985;SDS011;4038;42.612;23.066;2023-03-12T15:48:50;22.50;;;21.00;;
7985;SDS011;4038;42.612;23.066;2023-03-12T15:51:55;23.10;;;21.60;;
7985;SDS011;4038;42.612;23.066;2023-03-12T15:56:39;22.63;;;21.23;;
7985;SDS011;4038;42.612;23.066;2023-03-12T15:59:19;23.07;;;21.60;;
7985;SDS011;4038;42.612;23.066;2023-03-12T16:01:47;22.80;;;21.40;;
7985;SDS011;4038;42.612;23.066;2023-03-12T16:04:12;21.63;;;20.23;;
7985;SDS011;4038;42.612;23.066;2023-03-12T16:06:38;23.00;;;21.50;;
7985;SDS011;4038;42.612;23.066;2023-03-12T16:09:03;23.95;;;22.40;;
7985;SDS011;4038;42.612;23.066;2023-03-12T16:11:29;23.00;;;21.60;;
7985;SDS011;4038;42.612;23.066;2023-03-12T16:14:18;21.57;;;20.27;;
7985;SDS011;4038;42.612;23.066;2023-03-12T16:16:40;21.37;;;20.07;;
7985;SDS011;4038;42.612;23.066;2023-03-12T16:19:11;22.23;;;20.83;;
7985;SDS011;4038;42.612;23.066;2023-03-12T16:21:37;21.40;;;20.00;;
7985;SDS011;4038;42.612;23.066;2023-03-12T16:24:02;22.50;;;21.00;;
7985;SDS011;4038;42.612;23.066;2023-03-12T16:26:27;22.43;;;20.93;;
7985;SDS011;4038;42.612;23.066;2023-03-12T16:28:52;22.27;;;20.87;;
7985;SDS011;4038;42.612;23.066;2023-03-12T16:31:18;23.10;;;21.40;;
7985;SDS011;4038;42.612;23.066;2023-03-12T16:33:43;22.50;;;21.10;;
7985;SDS011;4038;42.612;23.066;2023-03-12T16:36:15;23.57;;;21.87;;